sensor_id;sensor_type;location;lat;lon;timestamp;pressure;altitude;pressure_sealevel;temperature;humidity
13124;BME280;6627;50.920;12.050;2023-03-24T00:00:33;98070.91;;;22.42;44.01
13124;BME280;6627;50.920;12.050;2023-03-24T00:03:00;97842.47;;;20.80;45.62
13124;BME280;6627;50.920;12.050;2023-03-24T00:05:28;98065.44;;;22.28;44.29
13124;BME280;6627;50.920;12.050;2023-03-24T00:07:55;97925.94;;;21.27;45.54
13124;BME280;6627;50.920;12.050;2023-03-24T00:10:25;97992.88;;;21.42;46.27
13124;BME280;6627;50.920;12.050;2023-03-24T00:12:56;97854.25;;;20.70;46.05
13124;BME280;6627;50.920;12.050;2023-03-24T00:15:24;97865.97;;;20.46;47.56
13124;BME280;6627;50.920;12.050;2023-03-24T00:17:53;98013.41;;;21.87;44.22
13124;BME280;6627;50.920;12.050;2023-03-24T00:20:24;97855.81;;;20.50;46.93
13124;BME280;6627;50.920;12.050;2023-03-24T00:22:54;98014.94;;;21.53;46.18
13124;BME280;6627;50.920;12.050;2023-03-24T00:25:26;97856.53;;;20.47;47.06
13124;BME280;6627;50.920;12.050;2023-03-24T00:27:55;97869.13;;;20.48;47.71
13124;BME280;6627;50.920;12.050;2023-03-24T00:30:23;97906.09;;;20.57;48.06
13124;BME280;6627;50.920;12.050;2023-03-24T00:32:52;97856.41;;;20.18;48.30
13124;BME280;6627;50.920;12.050;2023-03-24T00:35:20;98010.19;;;21.42;46.83
13124;BME280;6627;50.920;12.050;2023-03-24T00:37:48;97836.34;;;20.07;48.14
13124;BME280;6627;50.920;12.050;2023-03-24T00:40:18;97997.22;;;21.54;45.88
13124;BME280;6627;50.920;12.050;2023-03-24T00:42:48;97862.00;;;20.39;47.69
13124;BME280;6627;50.920;12.050;2023-03-24T00:45:18;97999.22;;;21.57;45.78
13124;BME280;6627;50.920;12.050;2023-03-24T00:47:48;98082.75;;;22.32;45.09
13124;BME280;6627;50.920;12.050;2023-03-24T00:50:20;97922.06;;;21.35;45.57
13124;BME280;6627;50.920;12.050;2023-03-24T00:52:51;98011.81;;;21.94;45.50
13124;BME280;6627;50.920;12.050;2023-03-24T00:55:19;97955.91;;;21.68;44.83
13124;BME280;6627;50.920;12.050;2023-03-24T00:57:47;98057.13;;;22.42;43.98
13124;BME280;6627;50.920;12.050;2023-03-24T01:00:18;97967.72;;;22.01;44.11
13124;BME280;6627;50.920;12.050;2023-03-24T01:02:47;97901.97;;;21.60;44.72
13124;BME280;6627;50.920;12.050;2023-03-24T01:05:21;98015.75;;;22.35;43.93
13124;BME280;6627;50.920;12.050;2023-03-24T01:07:49;97978.72;;;22.26;43.74
13124;BME280;6627;50.920;12.050;2023-03-24T01:10:20;97931.47;;;21.84;44.04
13124;BME280;6627;50.920;12.050;2023-03-24T01:12:52;97994.44;;;22.50;43.31
13124;BME280;6627;50.920;12.050;2023-03-24T01:15:22;97916.50;;;21.89;44.28
13124;BME280;6627;50.920;12.050;2023-03-24T01:17:53;97947.59;;;22.11;43.69
13124;BME280;6627;50.920;12.050;2023-03-24T01:20:23;97923.59;;;21.94;44.13
13124;BME280;6627;50.920;12.050;2023-03-24T01:22:51;97977.50;;;22.45;43.32
13124;BME280;6627;50.920;12.050;2023-03-24T01:25:21;97951.91;;;22.37;42.85
13124;BME280;6627;50.920;12.050;2023-03-24T01:27:50;97865.34;;;21.63;44.39
13124;BME280;6627;50.920;12.050;2023-03-24T01:30:21;97929.06;;;22.22;43.06
13124;BME280;6627;50.920;12.050;2023-03-24T01:32:50;97940.88;;;22.26;43.29
13124;BME280;6627;50.920;12.050;2023-03-24T01:35:19;97931.03;;;22.29;42.91
13124;BME280;6627;50.920;12.050;2023-03-24T01:37:48;97932.94;;;22.50;42.50
13124;BME280;6627;50.920;12.050;2023-03-24T01:40:18;97929.78;;;22.48;42.36
13124;BME280;6627;50.920;12.050;2023-03-24T01:42:47;97809.03;;;21.75;43.36
13124;BME280;6627;50.920;12.050;2023-03-24T01:45:47;97880.63;;;22.03;43.88
13124;BME280;6627;50.920;12.050;2023-03-24T01:48:21;97953.34;;;22.70;42.79
13124;BME280;6627;50.920;12.050;2023-03-24T01:51:00;97906.19;;;22.32;42.98
13124;BME280;6627;50.920;12.050;2023-03-24T01:53:33;97831.88;;;21.75;43.71
13124;BME280;6627;50.920;12.050;2023-03-24T01:56:05;97850.34;;;21.92;43.85
13124;BME280;6627;50.920;12.050;2023-03-24T01:58:34;97960.50;;;22.57;43.53
13124;BME280;6627;50.920;12.050;2023-03-24T02:01:03;97934.50;;;22.58;43.11
13124;BME280;6627;50.920;12.050;2023-03-24T02:03:32;97949.38;;;22.78;42.53
13124;BME280;6627;50.920;12.050;2023-03-24T02:06:05;97949.84;;;22.59;43.00
13124;BME280;6627;50.920;12.050;2023-03-24T02:08:40;97997.44;;;23.02;42.31
13124;BME280;6627;50.920;12.050;2023-03-24T02:11:08;98029.56;;;23.41;41.74
13124;BME280;6627;50.920;12.050;2023-03-24T02:13:36;97824.69;;;22.10;43.45
13124;BME280;6627;50.920;12.050;2023-03-24T02:16:18;97884.09;;;22.39;43.61
13124;BME280;6627;50.920;12.050;2023-03-24T02:19:08;97890.09;;;21.99;45.32
13124;BME280;6627;50.920;12.050;2023-03-24T02:22:16;97892.09;;;21.73;46.85
13124;BME280;6627;50.920;12.050;2023-03-24T02:26:03;97929.09;;;21.86;46.26
13124;BME280;6627;50.920;12.050;2023-03-24T02:28:47;97864.19;;;21.35;47.17
13124;BME280;6627;50.920;12.050;2023-03-24T02:31:34;97997.66;;;22.09;47.22
13124;BME280;6627;50.920;12.050;2023-03-24T02:37:49;97972.28;;;20.89;53.03
13124;BME280;6627;50.920;12.050;2023-03-24T02:40:34;97997.13;;;21.14;51.98
13124;BME280;6627;50.920;12.050;2023-03-24T02:43:36;97917.81;;;20.36;53.18
13124;BME280;6627;50.920;12.050;2023-03-24T02:46:15;97855.78;;;19.73;54.10
13124;BME280;6627;50.920;12.050;2023-03-24T02:49:06;97906.69;;;20.15;53.04
13124;BME280;6627;50.920;12.050;2023-03-24T02:51:44;97977.31;;;20.73;52.76
13124;BME280;6627;50.920;12.050;2023-03-24T02:54:18;97939.81;;;20.36;54.02
13124;BME280;6627;50.920;12.050;2023-03-24T02:56:54;98013.19;;;21.02;52.83
13124;BME280;6627;50.920;12.050;2023-03-24T02:59:30;98142.66;;;22.28;49.90
13124;BME280;6627;50.920;12.050;2023-03-24T03:02:06;98071.28;;;21.95;49.25
13124;BME280;6627;50.920;12.050;2023-03-24T03:04:40;97925.81;;;20.63;51.96
13124;BME280;6627;50.920;12.050;2023-03-24T03:07:12;97974.94;;;20.72;53.10
13124;BME280;6627;50.920;12.050;2023-03-24T03:09:50;97984.03;;;20.79;52.93
13124;BME280;6627;50.920;12.050;2023-03-24T03:12:22;97933.59;;;20.50;52.71
13124;BME280;6627;50.920;12.050;2023-03-24T03:14:58;97945.03;;;20.56;53.26
13124;BME280;6627;50.920;12.050;2023-03-24T03:17:34;97959.56;;;20.60;53.70
13124;BME280;6627;50.920;12.050;2023-03-24T03:20:09;98008.53;;;21.13;52.45
13124;BME280;6627;50.920;12.050;2023-03-24T03:22:47;97982.53;;;21.07;51.71
13124;BME280;6627;50.920;12.050;2023-03-24T03:25:21;98003.09;;;21.38;51.10
13124;BME280;6627;50.920;12.050;2023-03-24T03:27:54;98002.34;;;21.45;51.08
13124;BME280;6627;50.920;12.050;2023-03-24T03:30:29;97934.47;;;20.76;52.43
13124;BME280;6627;50.920;12.050;2023-03-24T03:33:03;97956.63;;;21.22;50.84
13124;BME280;6627;50.920;12.050;2023-03-24T03:35:34;97932.19;;;20.99;51.70
13124;BME280;6627;50.920;12.050;2023-03-24T03:38:14;97946.06;;;21.46;49.95
13124;BME280;6627;50.920;12.050;2023-03-24T03:40:50;97959.84;;;21.74;49.21
13124;BME280;6627;50.920;12.050;2023-03-24T03:43:21;97948.81;;;21.88;47.98
13124;BME280;6627;50.920;12.050;2023-03-24T03:45:49;97877.97;;;21.35;49.23
13124;BME280;6627;50.920;12.050;2023-03-24T03:48:17;98001.47;;;22.62;47.13
13124;BME280;6627;50.920;12.050;2023-03-24T03:50:45;97800.81;;;21.07;48.75
13124;BME280;6627;50.920;12.050;2023-03-24T03:53:16;97865.00;;;21.43;48.87
13124;BME280;6627;50.920;12.050;2023-03-24T03:55:46;97955.88;;;22.22;47.90
13124;BME280;6627;50.920;12.050;2023-03-24T03:58:14;97910.22;;;21.88;48.09
13124;BME280;6627;50.920;12.050;2023-03-24T04:00:44;97923.56;;;22.22;46.96
13124;BME280;6627;50.920;12.050;2023-03-24T04:03:40;97813.44;;;21.44;47.89
13124;BME280;6627;50.920;12.050;2023-03-24T04:06:20;97864.50;;;21.95;47.39
13124;BME280;6627;50.920;12.050;2023-03-24T04:09:00;97811.09;;;21.31;48.03
13124;BME280;6627;50.920;12.050;2023-03-24T04:11:45;97957.31;;;22.62;46.71
13124;BME280;6627;50.920;12.050;2023-03-24T04:14:51;97911.72;;;22.32;46.71
13124;BME280;6627;50.920;12.050;2023-03-24T04:17:49;97845.66;;;21.75;47.25
13124;BME280;6627;50.920;12.050;2023-03-24T04:20:24;97840.09;;;21.93;47.02
13124;BME280;6627;50.920;12.050;2023-03-24T04:23:04;97813.38;;;21.72;47.29
13124;BME280;6627;50.920;12.050;2023-03-24T04:25:46;97888.88;;;22.17;46.84
13124;BME280;6627;50.920;12.050;2023-03-24T04:28:22;97877.00;;;22.38;46.15
13124;BME280;6627;50.920;12.050;2023-03-24T04:30:58;97841.66;;;22.01;46.54
13124;BME280;6627;50.920;12.050;2023-03-24T04:33:38;97772.13;;;21.40;47.34
13124;BME280;6627;50.920;12.050;2023-03-24T04:36:15;97892.00;;;22.37;46.77
13124;BME280;6627;50.920;12.050;2023-03-24T04:38:50;97826.31;;;21.89;47.18
13124;BME280;6627;50.920;12.050;2023-03-24T04:41:20;97796.09;;;21.54;47.75
13124;BME280;6627;50.920;12.050;2023-03-24T04:43:52;97814.16;;;21.69;47.94
13124;BME280;6627;50.920;12.050;2023-03-24T04:46:21;97830.22;;;22.06;46.90
13124;BME280;6627;50.920;12.050;2023-03-24T04:48:50;97939.88;;;22.94;45.63
13124;BME280;6627;50.920;12.050;2023-03-24T04:51:18;97735.53;;;21.32;47.55
13124;BME280;6627;50.920;12.050;2023-03-24T04:53:47;97785.06;;;21.50;47.37
13124;BME280;6627;50.920;12.050;2023-03-24T04:56:37;97770.06;;;21.76;46.45
13124;BME280;6627;50.920;12.050;2023-03-24T04:59:06;97850.19;;;22.42;46.27
13124;BME280;6627;50.920;12.050;2023-03-24T05:01:34;97824.28;;;22.19;46.41
13124;BME280;6627;50.920;12.050;2023-03-24T05:04:04;97747.31;;;21.40;47.84
13124;BME280;6627;50.920;12.050;2023-03-24T05:06:32;97734.34;;;21.23;48.60
13124;BME280;6627;50.920;12.050;2023-03-24T05:08:59;97672.66;;;20.91;48.66
13124;BME280;6627;50.920;12.050;2023-03-24T05:11:27;97766.97;;;21.53;47.67
13124;BME280;6627;50.920;12.050;2023-03-24T05:13:54;97807.78;;;22.01;47.01
13124;BME280;6627;50.920;12.050;2023-03-24T05:16:21;97713.50;;;21.36;47.78
13124;BME280;6627;50.920;12.050;2023-03-24T05:18:49;97799.88;;;21.99;47.09
13124;BME280;6627;50.920;12.050;2023-03-24T05:21:18;97682.88;;;20.80;48.81
13124;BME280;6627;50.920;12.050;2023-03-24T05:23:46;97822.72;;;22.14;47.11
13124;BME280;6627;50.920;12.050;2023-03-24T05:26:14;97845.81;;;22.49;45.99
13124;BME280;6627;50.920;12.050;2023-03-24T05:28:41;97795.97;;;21.97;46.88
13124;BME280;6627;50.920;12.050;2023-03-24T05:31:09;97814.06;;;22.12;46.33
13124;BME280;6627;50.920;12.050;2023-03-24T05:33:36;97748.41;;;21.71;46.40
13124;BME280;6627;50.920;12.050;2023-03-24T05:36:04;97825.78;;;22.30;46.04
13124;BME280;6627;50.920;12.050;2023-03-24T05:38:33;97751.19;;;21.64;46.60
13124;BME280;6627;50.920;12.050;2023-03-24T05:41:01;97662.28;;;21.49;45.54
13124;BME280;6627;50.920;12.050;2023-03-24T05:43:28;97701.59;;;21.64;46.00
13124;BME280;6627;50.920;12.050;2023-03-24T05:45:55;97700.84;;;21.56;46.66
13124;BME280;6627;50.920;12.050;2023-03-24T05:48:25;97868.09;;;22.83;44.82
13124;BME280;6627;50.920;12.050;2023-03-24T05:50:53;97716.44;;;21.91;45.42
13124;BME280;6627;50.920;12.050;2023-03-24T05:53:20;97914.28;;;23.41;44.00
13124;BME280;6627;50.920;12.050;2023-03-24T05:55:49;97810.63;;;22.67;44.79
13124;BME280;6627;50.920;12.050;2023-03-24T05:58:18;97819.16;;;22.90;43.88
13124;BME280;6627;50.920;12.050;2023-03-24T06:00:46;97864.53;;;23.41;43.46
13124;BME280;6627;50.920;12.050;2023-03-24T06:03:13;97807.22;;;23.04;43.70
13124;BME280;6627;50.920;12.050;2023-03-24T06:05:42;97669.00;;;22.25;44.19
13124;BME280;6627;50.920;12.050;2023-03-24T06:08:11;97840.88;;;23.40;43.43
13124;BME280;6627;50.920;12.050;2023-03-24T06:10:38;97795.28;;;23.18;43.38
13124;BME280;6627;50.920;12.050;2023-03-24T06:13:07;97658.25;;;22.41;43.72
13124;BME280;6627;50.920;12.050;2023-03-24T06:15:35;97850.50;;;23.70;42.58
13124;BME280;6627;50.920;12.050;2023-03-24T06:18:04;97583.53;;;21.59;45.17
13124;BME280;6627;50.920;12.050;2023-03-24T06:20:31;97763.81;;;23.05;43.87
13124;BME280;6627;50.920;12.050;2023-03-24T06:22:59;97786.63;;;23.16;43.49
13124;BME280;6627;50.920;12.050;2023-03-24T06:25:27;97727.88;;;23.12;42.93
13124;BME280;6627;50.920;12.050;2023-03-24T06:27:54;97729.16;;;22.97;43.39
13124;BME280;6627;50.920;12.050;2023-03-24T06:30:32;97745.63;;;23.11;43.01
13124;BME280;6627;50.920;12.050;2023-03-24T06:32:59;97657.91;;;22.32;44.38
13124;BME280;6627;50.920;12.050;2023-03-24T06:35:26;97703.66;;;22.78;43.38
13124;BME280;6627;50.920;12.050;2023-03-24T06:37:54;97851.91;;;23.85;42.26
13124;BME280;6627;50.920;12.050;2023-03-24T06:40:22;97763.69;;;23.19;42.94
13124;BME280;6627;50.920;12.050;2023-03-24T06:42:49;97781.63;;;23.41;42.57
13124;BME280;6627;50.920;12.050;2023-03-24T06:45:17;97821.78;;;23.57;42.60
13124;BME280;6627;50.920;12.050;2023-03-24T06:47:45;97586.31;;;22.18;43.64
13124;BME280;6627;50.920;12.050;2023-03-24T06:50:12;97809.03;;;23.70;42.32
13124;BME280;6627;50.920;12.050;2023-03-24T06:52:40;97781.38;;;23.70;41.60
13124;BME280;6627;50.920;12.050;2023-03-24T06:55:08;97728.06;;;23.32;42.06
13124;BME280;6627;50.920;12.050;2023-03-24T06:57:35;97768.00;;;23.65;41.39
13124;BME280;6627;50.920;12.050;2023-03-24T07:00:04;97744.59;;;23.35;42.62
13124;BME280;6627;50.920;12.050;2023-03-24T07:02:34;97696.44;;;22.99;42.93
13124;BME280;6627;50.920;12.050;2023-03-24T07:05:04;97743.75;;;23.42;42.39
13124;BME280;6627;50.920;12.050;2023-03-24T07:07:33;97739.88;;;23.32;42.70
13124;BME280;6627;50.920;12.050;2023-03-24T07:10:02;97750.06;;;23.42;42.28
13124;BME280;6627;50.920;12.050;2023-03-24T07:12:30;97645.06;;;22.60;43.19
13124;BME280;6627;50.920;12.050;2023-03-24T07:14:58;97748.72;;;23.20;42.91
13124;BME280;6627;50.920;12.050;2023-03-24T07:17:25;97708.53;;;23.12;42.37
13124;BME280;6627;50.920;12.050;2023-03-24T07:19:52;97824.09;;;23.62;42.83
13124;BME280;6627;50.920;12.050;2023-03-24T07:22:21;97643.06;;;22.64;42.75
13124;BME280;6627;50.920;12.050;2023-03-24T07:24:48;97678.72;;;22.92;42.40
13124;BME280;6627;50.920;12.050;2023-03-24T07:27:16;97704.31;;;22.97;42.90
13124;BME280;6627;50.920;12.050;2023-03-24T07:29:44;97738.59;;;23.03;43.25
13124;BME280;6627;50.920;12.050;2023-03-24T07:32:11;97669.34;;;22.79;43.10
13124;BME280;6627;50.920;12.050;2023-03-24T07:34:39;97704.09;;;22.73;43.90
13124;BME280;6627;50.920;12.050;2023-03-24T07:37:08;97737.28;;;22.66;45.24
13124;BME280;6627;50.920;12.050;2023-03-24T07:39:37;97741.94;;;22.76;44.56
13124;BME280;6627;50.920;12.050;2023-03-24T07:42:04;97779.72;;;22.86;45.17
13124;BME280;6627;50.920;12.050;2023-03-24T07:44:32;97709.66;;;22.07;46.88
13124;BME280;6627;50.920;12.050;2023-03-24T07:46:59;97680.31;;;21.68;46.80
13124;BME280;6627;50.920;12.050;2023-03-24T07:49:26;97779.38;;;22.14;47.18
13124;BME280;6627;50.920;12.050;2023-03-24T07:51:53;97797.06;;;22.24;46.96
13124;BME280;6627;50.920;12.050;2023-03-24T07:54:21;97783.00;;;21.94;47.97
13124;BME280;6627;50.920;12.050;2023-03-24T07:56:49;97856.09;;;22.41;47.00
13124;BME280;6627;50.920;12.050;2023-03-24T07:59:16;97783.41;;;21.81;48.00
13124;BME280;6627;50.920;12.050;2023-03-24T08:01:44;97840.03;;;22.11;47.58
13124;BME280;6627;50.920;12.050;2023-03-24T08:04:12;97799.19;;;21.77;48.72
13124;BME280;6627;50.920;12.050;2023-03-24T08:06:41;97908.47;;;22.52;47.26
13124;BME280;6627;50.920;12.050;2023-03-24T08:09:09;97915.53;;;22.63;48.15
13124;BME280;6627;50.920;12.050;2023-03-24T08:11:37;97974.56;;;22.98;47.90
13124;BME280;6627;50.920;12.050;2023-03-24T08:14:06;97897.84;;;22.54;47.52
13124;BME280;6627;50.920;12.050;2023-03-24T08:16:34;97915.31;;;23.06;46.34
13124;BME280;6627;50.920;12.050;2023-03-24T08:19:03;97819.03;;;22.42;46.55
13124;BME280;6627;50.920;12.050;2023-03-24T08:21:31;97799.06;;;22.20;46.70
13124;BME280;6627;50.920;12.050;2023-03-24T08:23:58;97923.25;;;23.01;46.47
13124;BME280;6627;50.920;12.050;2023-03-24T08:26:26;98035.22;;;23.86;45.54
13124;BME280;6627;50.920;12.050;2023-03-24T08:28:53;97942.03;;;23.27;46.03
13124;BME280;6627;50.920;12.050;2023-03-24T08:31:22;97905.44;;;23.12;45.80
13124;BME280;6627;50.920;12.050;2023-03-24T08:33:49;97822.47;;;22.67;45.63
13124;BME280;6627;50.920;12.050;2023-03-24T08:36:16;97816.22;;;22.53;46.50
13124;BME280;6627;50.920;12.050;2023-03-24T08:38:43;97886.16;;;23.02;46.29
13124;BME280;6627;50.920;12.050;2023-03-24T08:41:13;97887.84;;;22.78;47.42
13124;BME280;6627;50.920;12.050;2023-03-24T08:43:40;97820.28;;;22.30;47.57
13124;BME280;6627;50.920;12.050;2023-03-24T08:46:08;97964.84;;;23.42;46.36
13124;BME280;6627;50.920;12.050;2023-03-24T08:48:37;97873.53;;;23.01;45.97
13124;BME280;6627;50.920;12.050;2023-03-24T08:51:11;97861.78;;;22.89;46.51
13124;BME280;6627;50.920;12.050;2023-03-24T08:53:38;97854.81;;;22.67;46.90
13124;BME280;6627;50.920;12.050;2023-03-24T08:56:07;97860.97;;;22.92;46.05
13124;BME280;6627;50.920;12.050;2023-03-24T08:58:34;97937.31;;;23.80;44.39
13124;BME280;6627;50.920;12.050;2023-03-24T09:01:02;97911.88;;;23.51;44.98
13124;BME280;6627;50.920;12.050;2023-03-24T09:03:29;97863.91;;;23.23;45.40
13124;BME280;6627;50.920;12.050;2023-03-24T09:05:58;97885.03;;;23.48;44.65
13124;BME280;6627;50.920;12.050;2023-03-24T09:08:27;97815.19;;;22.95;45.77
13124;BME280;6627;50.920;12.050;2023-03-24T09:10:54;97837.97;;;23.10;45.54
13124;BME280;6627;50.920;12.050;2023-03-24T09:13:22;97838.22;;;23.26;45.27
13124;BME280;6627;50.920;12.050;2023-03-24T09:15:51;97915.81;;;23.95;44.47
13124;BME280;6627;50.920;12.050;2023-03-24T09:18:21;97896.06;;;23.51;45.02
13124;BME280;6627;50.920;12.050;2023-03-24T09:20:49;97954.06;;;24.03;44.47
13124;BME280;6627;50.920;12.050;2023-03-24T09:23:38;97991.81;;;24.24;43.88
13124;BME280;6627;50.920;12.050;2023-03-24T09:26:05;97838.28;;;23.19;45.01
13124;BME280;6627;50.920;12.050;2023-03-24T09:28:33;97972.00;;;24.29;43.55
13124;BME280;6627;50.920;12.050;2023-03-24T09:31:03;97941.53;;;24.33;42.81
13124;BME280;6627;50.920;12.050;2023-03-24T09:33:31;97840.69;;;23.62;43.79
13124;BME280;6627;50.920;12.050;2023-03-24T09:36:01;97890.94;;;23.95;43.67
13124;BME280;6627;50.920;12.050;2023-03-24T09:38:29;97920.22;;;23.92;43.74
13124;BME280;6627;50.920;12.050;2023-03-24T09:41:01;97887.13;;;23.81;43.83
13124;BME280;6627;50.920;12.050;2023-03-24T09:43:39;98017.09;;;25.02;42.46
13124;BME280;6627;50.920;12.050;2023-03-24T09:46:14;98031.84;;;25.26;42.27
13124;BME280;6627;50.920;12.050;2023-03-24T09:48:47;97869.13;;;24.34;42.55
13124;BME280;6627;50.920;12.050;2023-03-24T09:51:22;97968.53;;;24.94;42.61
13124;BME280;6627;50.920;12.050;2023-03-24T09:54:00;97838.53;;;24.18;42.55
13124;BME280;6627;50.920;12.050;2023-03-24T09:56:37;97741.41;;;23.37;43.40
13124;BME280;6627;50.920;12.050;2023-03-24T09:59:11;97799.47;;;23.78;42.92
13124;BME280;6627;50.920;12.050;2023-03-24T10:01:41;97810.94;;;24.11;41.90
13124;BME280;6627;50.920;12.050;2023-03-24T10:04:14;97882.47;;;24.47;41.89
13124;BME280;6627;50.920;12.050;2023-03-24T10:06:43;97841.66;;;24.20;42.04
13124;BME280;6627;50.920;12.050;2023-03-24T10:09:23;97876.34;;;24.28;42.23
13124;BME280;6627;50.920;12.050;2023-03-24T10:12:13;97915.50;;;24.61;41.86
13124;BME280;6627;50.920;12.050;2023-03-24T10:14:50;97918.66;;;24.63;41.90
13124;BME280;6627;50.920;12.050;2023-03-24T10:17:28;97866.09;;;24.25;42.03
13124;BME280;6627;50.920;12.050;2023-03-24T10:20:08;97921.75;;;24.69;41.79
13124;BME280;6627;50.920;12.050;2023-03-24T10:22:49;97784.91;;;23.74;42.79
13124;BME280;6627;50.920;12.050;2023-03-24T10:25:43;97751.22;;;23.83;41.70
13124;BME280;6627;50.920;12.050;2023-03-24T10:28:18;97845.81;;;24.35;41.49
13124;BME280;6627;50.920;12.050;2023-03-24T10:30:48;97838.91;;;24.51;41.01
13124;BME280;6627;50.920;12.050;2023-03-24T10:33:17;97832.78;;;24.36;41.59
13124;BME280;6627;50.920;12.050;2023-03-24T10:35:55;97880.44;;;24.81;41.21
13124;BME280;6627;50.920;12.050;2023-03-24T10:38:25;97873.91;;;24.95;40.13
13124;BME280;6627;50.920;12.050;2023-03-24T10:40:53;97819.19;;;24.49;41.14
13124;BME280;6627;50.920;12.050;2023-03-24T10:43:26;97882.94;;;24.99;40.58
13124;BME280;6627;50.920;12.050;2023-03-24T10:45:56;97861.06;;;24.81;40.57
13124;BME280;6627;50.920;12.050;2023-03-24T10:48:44;97840.88;;;24.81;40.50
13124;BME280;6627;50.920;12.050;2023-03-24T10:51:17;97863.81;;;24.81;40.94
13124;BME280;6627;50.920;12.050;2023-03-24T10:53:46;97938.72;;;25.59;39.82
13124;BME280;6627;50.920;12.050;2023-03-24T10:56:17;97863.41;;;25.10;39.96
13124;BME280;6627;50.920;12.050;2023-03-24T10:58:46;97889.34;;;25.23;40.16
13124;BME280;6627;50.920;12.050;2023-03-24T11:01:24;97823.03;;;24.55;41.18
13124;BME280;6627;50.920;12.050;2023-03-24T11:03:58;97813.53;;;24.56;41.10
13124;BME280;6627;50.920;12.050;2023-03-24T11:06:26;97838.72;;;24.65;41.33
13124;BME280;6627;50.920;12.050;2023-03-24T11:09:17;97779.78;;;24.37;41.12
13124;BME280;6627;50.920;12.050;2023-03-24T11:11:45;97820.06;;;24.42;41.78
13124;BME280;6627;50.920;12.050;2023-03-24T11:14:22;97811.41;;;24.36;42.16
13124;BME280;6627;50.920;12.050;2023-03-24T11:16:51;97807.41;;;24.07;43.05
13124;BME280;6627;50.920;12.050;2023-03-24T11:19:21;97780.06;;;23.40;45.19
13124;BME280;6627;50.920;12.050;2023-03-24T11:21:55;97896.72;;;23.70;46.21
13124;BME280;6627;50.920;12.050;2023-03-24T11:24:25;97896.13;;;23.40;47.37
13124;BME280;6627;50.920;12.050;2023-03-24T11:26:58;97953.91;;;23.24;49.27
13124;BME280;6627;50.920;12.050;2023-03-24T11:29:32;98022.03;;;23.49;49.49
13124;BME280;6627;50.920;12.050;2023-03-24T11:32:02;97887.19;;;22.52;50.89
13124;BME280;6627;50.920;12.050;2023-03-24T11:34:32;98003.41;;;22.94;51.14
13124;BME280;6627;50.920;12.050;2023-03-24T11:37:05;98077.34;;;23.41;50.70
13124;BME280;6627;50.920;12.050;2023-03-24T11:39:34;98091.03;;;23.63;49.96
13124;BME280;6627;50.920;12.050;2023-03-24T11:42:12;97995.22;;;22.58;52.20
13124;BME280;6627;50.920;12.050;2023-03-24T11:44:50;97905.47;;;21.85;53.16
13124;BME280;6627;50.920;12.050;2023-03-24T11:47:23;98003.94;;;22.17;53.96
13124;BME280;6627;50.920;12.050;2023-03-24T11:50:08;97931.09;;;21.54;54.41
13124;BME280;6627;50.920;12.050;2023-03-24T11:52:46;97970.47;;;21.94;53.45
13124;BME280;6627;50.920;12.050;2023-03-24T11:55:23;97936.22;;;21.45;54.02
13124;BME280;6627;50.920;12.050;2023-03-24T11:58:00;97935.44;;;21.65;53.23
13124;BME280;6627;50.920;12.050;2023-03-24T12:00:34;97917.31;;;21.39;54.09
13124;BME280;6627;50.920;12.050;2023-03-24T12:03:48;97940.16;;;21.51;53.51
13124;BME280;6627;50.920;12.050;2023-03-24T12:06:32;97981.50;;;21.86;53.23
13124;BME280;6627;50.920;12.050;2023-03-24T12:09:18;97931.44;;;21.13;54.14
13124;BME280;6627;50.920;12.050;2023-03-24T12:12:08;97921.13;;;20.88;55.22
13124;BME280;6627;50.920;12.050;2023-03-24T12:14:59;97726.22;;;18.98;55.91
13124;BME280;6627;50.920;12.050;2023-03-24T12:17:39;97807.09;;;19.67;55.46
13124;BME280;6627;50.920;12.050;2023-03-24T12:20:18;97793.94;;;19.35;56.14
13124;BME280;6627;50.920;12.050;2023-03-24T12:22:58;97896.50;;;20.19;55.24
13124;BME280;6627;50.920;12.050;2023-03-24T12:25:43;97814.78;;;19.47;54.46
13124;BME280;6627;50.920;12.050;2023-03-24T12:28:31;97844.13;;;19.35;56.13
13124;BME280;6627;50.920;12.050;2023-03-24T12:31:26;97836.34;;;19.45;55.13
13124;BME280;6627;50.920;12.050;2023-03-24T12:34:16;97821.38;;;19.38;54.39
13124;BME280;6627;50.920;12.050;2023-03-24T12:36:58;97817.13;;;18.93;55.40
13124;BME280;6627;50.920;12.050;2023-03-24T12:39:33;97822.53;;;19.30;54.05
13124;BME280;6627;50.920;12.050;2023-03-24T12:42:08;97823.22;;;19.20;54.43
13124;BME280;6627;50.920;12.050;2023-03-24T12:45:20;97927.88;;;20.11;54.20
13124;BME280;6627;50.920;12.050;2023-03-24T12:48:39;97922.47;;;20.36;52.15
13124;BME280;6627;50.920;12.050;2023-03-24T12:51:26;97935.81;;;20.23;52.95
13124;BME280;6627;50.920;12.050;2023-03-24T12:54:20;97907.75;;;20.00;53.08
13124;BME280;6627;50.920;12.050;2023-03-24T12:56:57;97916.91;;;20.18;52.47
13124;BME280;6627;50.920;12.050;2023-03-24T12:59:32;97882.25;;;19.99;52.51
13124;BME280;6627;50.920;12.050;2023-03-24T13:02:15;97870.34;;;19.77;52.83
13124;BME280;6627;50.920;12.050;2023-03-24T13:04:49;97912.97;;;20.15;52.61
13124;BME280;6627;50.920;12.050;2023-03-24T13:07:23;97943.34;;;20.44;52.53
13124;BME280;6627;50.920;12.050;2023-03-24T13:09:58;97862.47;;;19.72;52.49
13124;BME280;6627;50.920;12.050;2023-03-24T13:12:36;97916.09;;;20.14;52.68
13124;BME280;6627;50.920;12.050;2023-03-24T13:15:16;97876.38;;;20.04;52.18
13124;BME280;6627;50.920;12.050;2023-03-24T13:18:06;97977.72;;;20.79;51.90
13124;BME280;6627;50.920;12.050;2023-03-24T13:21:05;97906.25;;;20.06;52.37
13124;BME280;6627;50.920;12.050;2023-03-24T13:23:47;97939.94;;;20.65;51.47
13124;BME280;6627;50.920;12.050;2023-03-24T13:26:36;97872.16;;;20.25;51.14
13124;BME280;6627;50.920;12.050;2023-03-24T13:29:19;97907.69;;;20.62;50.80
13124;BME280;6627;50.920;12.050;2023-03-24T13:31:53;97915.94;;;20.55;50.75
13124;BME280;6627;50.920;12.050;2023-03-24T13:34:29;97951.03;;;20.94;50.49
13124;BME280;6627;50.920;12.050;2023-03-24T13:37:03;97961.31;;;21.11;50.17